Station: Edithburgh  

  Atmospheric Gas Attenuation - ITU Rec 676-11   ----------------- dB/100km -----------------
Date Time Temp RH % AH g/m3 Dew Point Wind Direction Speed kph Gust kph Barometer mB Rainfall Since 9am 24GHz 47GHz 76GHz 122GHz 134GHz 241GHz
04/05 09:50 17.3 73 10.75 12.4 32 37 1014.5 0 24.0 28.4 46.7 122.9 122.3 422.6
04/05 09:40 17.5 73 10.88 12.6 32 39 1014.4 0 24.3 28.5 47.1 124.0 123.8 427.7
04/05 09:30 17.1 75 10.92 12.6 28 41 1014.3 0 24.4 28.7 47.5 125.1 124.9 431.7
04/05 09:20 17.1 73 10.63 12.2 35 39 1014.1 0 23.7 28.2 46.3 121.8 121.0 417.9
04/05 09:10 16.8 76 10.87 12.5 32 39 1014.1 0 24.3 28.7 47.5 125.0 124.7 430.9
04/05 09:00 16.6 75 10.59 12.2 28 37 1014 0 23.7 28.3 46.4 122.2 121.2 418.6
04/05 08:50 16.5 78 10.95 12.6 22 30 1013.8 3.4 24.5 29.0 48.0 126.3 126.3 436.4
04/05 08:40 16 76 10.35 11.9 22 26 1013.7 3.4 23.2 28.1 45.8 120.4 118.8 410.3
04/05 08:30 15.8 77 10.36 11.8 26 33 1013.5 3.4 23.2 28.2 45.9 120.8 119.3 411.8
04/05 08:20 15.8 83 11.17 12.9 17 22 1013.3 3.4 25.0 29.6 49.3 129.9 130.5 450.9
04/05 08:10 15.1 83 10.71 12.2 15 17 1013 3.4 24.0 29.0 47.8 125.8 125.2 432.3
04/05 08:00 14.9 85 10.83 12.4 19 28 1013 3.4 24.3 29.3 48.4 127.5 127.2 439.3
04/05 07:50 14.2 89 10.87 12.5 20 24 1012.8 3.4 24.4 29.6 49.0 129.1 128.9 445.2
04/05 07:40 13.3 93 10.75 12.2 13 15 1012.7 3.4 24.2 29.7 49.1 129.2 128.7 444.4
04/05 07:30 13.1 93 10.61 12 17 24 1012.5 3.4 23.9 29.5 48.6 127.9 127.0 438.5
04/05 07:20 12.9 93 10.48 11.8 20 24 1012.3 3.4 23.7 29.3 48.1 126.7 125.5 433.0
04/05 07:10 13 93 10.55 11.9 17 19 1012.1 3.4 23.8 29.4 48.4 127.3 126.3 435.9
04/05 07:00 13.1 93 10.61 12 15 20 1012.1 3.4 23.9 29.5 48.6 127.8 127.0 438.3
04/05 06:50 13.2 93 10.68 12.1 19 20 1011.9 3.4 24.1 29.5 48.8 128.4 127.8 441.2
04/05 06:40 13.4 94 10.93 12.4 17 20 1011.9 3.4 24.6 29.9 49.8 131.0 131.0 452.6
04/05 06:30 13.1 94 10.73 12.2 17 20 1011.8 3 24.2 29.7 49.1 129.2 128.7 444.2
04/05 06:20 12.7 93 10.35 11.6 17 19 1011.6 3 23.4 29.1 47.6 125.4 123.9 427.4
04/05 06:10 12.8 93 10.42 11.7 17 20 1011.5 3 23.6 29.2 47.9 126.0 124.7 430.3
04/05 06:00 12.6 93 10.29 11.5 17 26 1011.4 3 23.3 29.0 47.4 124.8 123.2 424.9
04/05 05:50 12.4 93 10.16 11.3 13 15 1011.3 2.8 23.0 28.9 47.0 123.6 121.6 419.5
04/05 05:40 12.7 92 10.24 11.4 11 15 1011.3 2.8 23.2 28.9 47.2 124.1 122.3 421.9
04/05 05:30 12.8 92 10.31 11.5 17 26 1011.2 2.8 23.3 29.0 47.4 124.7 123.1 424.8
04/05 05:20 13 92 10.43 11.7 22 24 1011.1 2.8 23.6 29.1 47.8 125.8 124.5 429.6
04/05 05:10 12.8 93 10.42 11.7 24 28 1011 2.8 23.6 29.2 47.9 126.0 124.7 430.2
04/05 05:00 12.6 93 10.29 11.5 17 20 1010.9 2.8 23.3 29.0 47.4 124.8 123.1 424.8
04/05 04:50 12.7 92 10.24 11.4 17 20 1010.8 2.8 23.2 28.9 47.1 124.0 122.2 421.7
04/05 04:40 12.8 93 10.42 11.7 20 22 1010.8 2.8 23.6 29.2 47.8 125.9 124.6 430.1
04/05 04:30 12.7 93 10.35 11.6 19 24 1010.7 2.8 23.4 29.1 47.6 125.3 123.8 427.1
04/05 04:20 12.8 93 10.42 11.7 20 24 1010.7 2.8 23.6 29.2 47.8 125.9 124.6 430.1
04/05 04:10 12.9 93 10.48 11.8 20 24 1010.6 2.8 23.7 29.2 48.0 126.5 125.3 432.5
04/05 04:00 12.9 93 10.48 11.8 20 26 1010.6 2.8 23.7 29.2 48.0 126.5 125.3 432.5
04/05 03:50 13 93 10.55 11.9 22 26 1010.5 2.8 23.8 29.3 48.3 127.1 126.1 435.4
04/05 03:40 13.2 93 10.68 12.1 22 26 1010.5 2.8 24.1 29.5 48.7 128.3 127.7 440.7
04/05 03:30 13.2 93 10.68 12.1 26 32 1010.5 2.8 24.1 29.5 48.7 128.3 127.7 440.7
04/05 03:20 13.4 93 10.81 12.3 22 28 1010.6 2.8 24.4 29.6 49.2 129.5 129.2 446.1
04/05 03:10 13.1 92 10.5 11.8 26 30 1010.6 2.8 23.7 29.2 48.0 126.4 125.3 432.3
04/05 03:00 13.2 92 10.56 11.9 28 35 1010.6 2.8 23.8 29.3 48.2 126.9 125.9 434.8
04/05 02:50 13.3 92 10.63 12 30 33 1010.6 2.8 24.0 29.4 48.4 127.5 126.8 437.7
04/05 02:40 13.5 91 10.64 12 33 37 1010.7 2.6 24.0 29.3 48.4 127.3 126.6 437.1
04/05 02:30 13.1 90 10.27 11.5 28 35 1010.6 2.6 23.2 28.8 47.0 123.7 122.0 420.9
04/05 02:20 13 91 10.32 11.5 28 32 1010.7 2.6 23.3 28.9 47.3 124.5 122.9 424.0
04/05 02:10 13.1 91 10.38 11.6 30 37 1010.7 2.6 23.5 29.0 47.5 125.0 123.6 426.4
04/05 02:00 13 90 10.21 11.4 30 39 1010.8 2.6 23.1 28.7 46.8 123.2 121.3 418.6
04/05 01:50 13.1 90 10.27 11.5 28 35 1010.8 2.6 23.2 28.8 47.0 123.7 122.0 421.0
04/05 01:40 13.3 90 10.4 11.7 33 39 1010.6 2.6 23.5 29.0 47.4 124.9 123.5 426.3
04/05 01:30 13.3 90 10.4 11.7 30 39 1010.8 2.6 23.5 29.0 47.5 124.9 123.5 426.3
04/05 01:20 13.1 91 10.38 11.6 30 32 1010.7 2.6 23.5 29.0 47.5 125.0 123.6 426.4
04/05 01:10 13.1 90 10.27 11.5 30 35 1010.7 2.6 23.2 28.8 47.0 123.7 122.0 421.0
04/05 01:00 13.1 89 10.16 11.3 28 41 1010.7 2.6 23.0 28.6 46.5 122.5 120.5 415.5
04/05 00:50 13 89 10.09 11.2 24 28 1010.7 2.6 22.8 28.5 46.3 121.8 119.6 412.6
04/05 00:40 13.2 88 10.1 11.2 28 32 1010.7 2.6 22.8 28.5 46.2 121.6 119.5 412.1
04/05 00:30 13.3 86 9.94 11 28 35 1010.8 2.6 22.5 28.2 45.5 119.7 117.1 403.7
04/05 00:20 13.3 85 9.82 10.8 32 41 1010.8 2.6 22.2 28.0 45.0 118.3 115.4 397.9
04/05 00:10 13.3 85 9.82 10.8 33 39 1010.9 2.6 22.2 28.0 45.0 118.3 115.4 397.9
04/05 00:00 13.5 85 9.94 11 32 41 1010.8 2.6 22.5 28.1 45.4 119.3 116.8 402.7
03/05 23:50 13.3 82 9.47 10.4 28 32 1011 2.6 21.5 27.4 43.5 114.4 110.6 381.1
03/05 23:40 13.3 85 9.82 10.8 24 30 1011 2.6 22.2 28.0 45.0 118.3 115.4 398.0
03/05 23:30 13.3 86 9.94 11 20 26 1011.1 2.6 22.5 28.2 45.5 119.7 117.1 403.8
03/05 23:20 13.3 86 9.94 11 20 24 1011.1 2.6 22.5 28.2 45.5 119.7 117.1 403.8
03/05 23:10 13.3 85 9.82 10.8 22 30 1011.1 2.6 22.2 28.0 45.0 118.3 115.4 398.0
03/05 23:00 13.4 84 9.77 10.8 24 32 1011.2 2.6 22.1 27.9 44.7 117.6 114.6 395.1
03/05 22:50 13.2 84 9.65 10.5 28 30 1011.3 2.6 21.9 27.7 44.3 116.6 113.2 390.4
03/05 22:40 13.4 82 9.53 10.5 24 30 1011.3 2.6 21.6 27.5 43.7 115.0 111.3 383.6
03/05 22:30 13.4 83 9.65 10.6 26 37 1011.3 2.6 21.9 27.7 44.2 116.3 112.9 389.3
03/05 22:20 13.5 82 9.59 10.5 26 32 1011.2 2.6 21.7 27.5 43.9 115.5 112.0 385.9
03/05 22:10 13.7 80 9.47 10.3 28 32 1011.2 2.6 21.5 27.3 43.3 113.8 110.0 379.2
03/05 22:00 13.9 79 9.47 10.3 28 41 1011.2 2.6 21.5 27.2 43.2 113.6 109.7 378.2
03/05 21:50 13.8 81 9.65 10.6 24 30 1011.1 2.6 21.8 27.5 44.0 115.7 112.3 387.3
03/05 21:40 13.6 81 9.53 10.5 26 30 1011.1 2.6 21.6 27.4 43.6 114.6 111.0 382.5
03/05 21:30 13.4 82 9.53 10.4 24 28 1011.1 2.6 21.6 27.5 43.7 114.9 111.3 383.5
03/05 21:20 13 82 9.3 10 22 28 1011.1 2.6 21.1 27.2 43.0 113.0 108.7 374.4
03/05 21:10 13.2 80 9.19 9.8 26 30 1011 2.6 20.9 27.0 42.4 111.4 106.9 368.2
03/05 21:00 13.1 80 9.13 9.7 26 33 1011 2.6 20.8 26.9 42.2 110.9 106.2 365.8
03/05 20:50 13.2 80 9.19 9.8 30 33 1010.9 2.6 20.9 27.0 42.4 111.4 106.9 368.2
03/05 20:40 13.3 80 9.24 9.9 26 30 1010.9 2.6 21.0 27.0 42.6 111.8 107.4 370.1
03/05 20:30 13.2 81 9.3 10 26 33 1010.9 2.6 21.1 27.1 42.9 112.7 108.4 373.4
03/05 20:20 13.1 80 9.13 9.7 24 28 1010.9 2.6 20.8 26.9 42.2 110.9 106.2 365.8
03/05 20:10 13.1 81 9.24 9.9 26 33 1010.8 2.6 21.0 27.1 42.7 112.1 107.7 371.0
03/05 20:00 12.9 83 9.36 10.1 24 28 1010.7 2.6 21.3 27.3 43.3 113.7 109.6 377.7
03/05 19:50 12.9 84 9.47 10.2 24 28 1010.7 2.6 21.5 27.5 43.7 115.0 111.1 383.0
03/05 19:40 13 82 9.3 10.1 24 28 1010.6 2.6 21.1 27.2 43.0 112.9 108.7 374.3
03/05 19:30 13.1 84 9.59 10.5 28 32 1010.5 2.6 21.8 27.6 44.1 116.0 112.5 387.7
03/05 19:20 12.9 87 9.81 10.8 26 28 1010.5 2.6 22.2 28.1 45.2 118.8 115.8 399.4
03/05 19:10 12.7 87 9.69 10.6 24 26 1010.4 2.6 22.0 27.9 44.8 117.7 114.5 394.5
03/05 19:00 12.6 87 9.63 10.5 24 30 1010.5 2.6 21.9 27.9 44.6 117.2 113.8 392.2
03/05 18:50 12.8 87 9.75 10.7 26 30 1010.3 2.6 22.1 28.0 44.9 118.2 115.1 396.9
03/05 18:40 12.9 88 9.92 10.9 24 30 1010.1 2.6 22.5 28.2 45.6 120.0 117.3 404.6
03/05 18:30 13 88 9.98 11.1 26 37 1010.1 2.6 22.6 28.3 45.8 120.5 118.0 407.1
03/05 18:20 12.7 85 9.46 10.2 26 32 1010 2.6 21.5 27.5 43.8 115.1 111.2 383.3
03/05 18:10 12.7 87 9.69 10.6 28 33 1010.1 2.6 22.0 27.9 44.7 117.7 114.4 394.4
03/05 18:00 12.6 86 9.52 10.3 30 39 1010 2.6 21.6 27.7 44.1 115.9 112.2 386.7
03/05 17:50 13.8 86 10.25 11.6 30 33 1010 2.2 23.1 28.5 46.5 122.3 120.5 416.0
03/05 17:40 13.4 86 10 11.2 24 26 1009.8 2.2 22.6 28.2 45.6 120.1 117.7 405.8
03/05 17:30 13.3 87 10.05 11.2 22 32 1009.7 2.2 22.7 28.3 45.9 120.8 118.5 408.8
03/05 17:20 13.1 86 9.81 10.9 24 28 1009.5 2.2 22.2 28.0 45.0 118.3 115.4 398.0

Last Refresh: 04-May-2026 09:50:09

Bureau of Meteorology